METAR
METAR

METAR

METAR EPSY 160900Z 27008KT 230V310 9999 SCT019 09/06 Q1016=
TAF EPSY 160830Z 1609/1618 26010KT 9999 SCT025 PROB40 TEMPO 1609/1615 26015G25KT -SHRA BKN020TCU=
Ostrzeżenia
Ostrzeżenia

Ostrzeżenia

OSTRZEZENIE LOTNISKOWE DLA LOTNISKA SZYMANY WAZNOSC OD: 18:00 15-10-2021 UTC DO: 20:00 15-10-2021 UTC ZJAWISKO: SILNY WIATR, PORYWY WIATRU. PRZEBIEG: W REJONIE LOTNISKA EPSY W DALSZYM CIAGU WYSTEPOWAC BEDZIE SILNY WIATR O SREDNIEJ PREDKOSCI 12-18 KT Z PORYWAMI DO 26 KT Z KIERUNKU 250-280 STOPNI. OPRACOWAL: LUKASZ NAPIORKOWSKI DNIA 15-10-2021 17:55 UTC NR OSTRZEZENIA: 310/2021.